Upstream stations:
Downstream station:
SHEF ID: BFFO2 Cimarron River near Buffalo, OK
STATION TYPE:
Regulating: Stage = 6.00, Flow = 750
PRECIP STAGE RIV-FLOW BAT-LOAD
in ft cfs volt
Ccp-Rev Ccp-Rev Ccp-Rev Ccp-Rev
(US/Central)
01/23 00:00 0.00 3.34 20 12.65
01/23 01:00 0.00 3.33 19 12.65
01/23 02:00 0.00 3.30 16 12.65
01/23 03:00 0.00 3.29 16 12.57
01/23 04:00 0.00 3.33 19 12.57
01/23 05:00 0.00 3.36 21 12.57
01/23 06:00 0.00 3.35 21 12.57
01/23 07:00 0.00 3.35 21 12.49
01/23 08:00 0.00 3.30 16 12.49
01/23 09:00 0.00 3.33 19 13.13
01/23 10:00 0.00 3.30 16 13.53
01/23 11:00 0.00 3.32 18 13.53
01/23 12:00 0.00 3.34 20 13.60
01/23 13:00 0.00 3.30 16 13.60
01/23 14:00 0.00 3.30 16 13.53
01/23 15:00 0.00 3.30 16 13.53
01/23 16:00 0.00 3.29 16 13.44
01/23 17:00 0.00 3.29 16 13.60
01/23 18:00 0.00 3.27 14 13.37
01/23 19:00 0.00 3.28 15 12.97
01/23 20:00 0.00 3.26 13 12.81
01/23 21:00 0.00 3.26 13 12.81
01/23 22:00 0.00 3.31 17 12.73
01/23 23:00 0.00 3.28 15 12.73